Baden, Switzerland
Current Conditions -  °F | °C
As of 7:50 AM on Friday 19 Dec 2014 (Local Time) from LSZH Reporting Station
Few Clouds Few Clouds  
Wind Chill: 43°   Ceiling: Unl
Heat Index: 43°   Visibility: 6mi
Dew Point: 41°   Wind: 3mph
Humidity: 93%   Direction: 220°SW
Pressure: 30.21"   Gusts: NA
Location:  47.48°N, 8.31°E
Report Text: LSZH 190650Z 22003KT 9999 FEW010 06/05 Q1023 NOSIG
Loading
Personal Weather Stations






























Interactive Weather Map New forecast layout! Learn more

10-Day Weather Forecast

Advertisements
Track Severe Weather on mobile